Terminal Aerodrome Forecast
Issued by NWS Des Moines, IA

Home | Current Version | Previous Version | Text Only | Print | Product List | Glossary On
Versions: 1 2 3 4 5 6 7 8 9 10 11 12 13 14 15 16 17 18 19 20 21 22 23
000
FTUS43 KDMX 232341
TAFDSM
TAF
KDSM 232341Z 2400/2424 32006KT P6SM OVC014
     FM240200 VRB03KT P6SM OVC010
     FM240500 13004KT P6SM OVC010
     FM241500 11011G18KT P6SM -SN OVC030
     FM242100 13012G22KT 5SM -RA OVC022=

USA.gov is the U.S. government's official web portal to all federal, state and local government web resources and services.